Time;durP1;ratioP1;P1;durP2;ratioP2;P2;SDS_P1;SDS_P2;PMS_P1;PMS_P2;Temp;Humidity;BMP_temperature;BMP_pressure;BME280_temperature;BME280_humidity;BME280_pressure;Samples;Min_cycle;Max_cycle;Signal;HPM_P1;HPM_P2
2021/11/19 00:01:35;;;;;;;0.17;0.17;;;;;;;9.90;84.68;102989.00;5057840;28;20062;-69
2021/11/19 00:04:01;;;;;;;0.20;0.20;;;;;;;9.88;84.60;102994.16;5074453;28;20025;-69
2021/11/19 00:06:27;;;;;;;0.10;0.10;;;;;;;9.88;84.91;102990.63;5058046;28;20031;-69
2021/11/19 00:08:53;;;;;;;0.10;0.10;;;;;;;9.88;84.98;102985.38;5074764;28;20025;-69
2021/11/19 00:11:22;;;;;;;0.10;0.10;;;;;;;9.94;84.74;102984.88;5075052;28;20270;-70
2021/11/19 00:13:48;;;;;;;0.20;0.20;;;;;;;9.97;84.80;102992.94;5074471;28;20040;-69
2021/11/19 00:16:15;;;;;;;0.30;0.30;;;;;;;9.99;84.92;103000.09;5077208;28;20029;-70
2021/11/19 00:18:41;;;;;;;0.10;0.10;;;;;;;10.01;84.69;102998.47;5078250;28;20035;-71
2021/11/19 00:21:07;;;;;;;0.30;0.30;;;;;;;10.04;84.57;102996.06;5078615;28;20024;-69
2021/11/19 00:23:33;;;;;;;0.30;0.30;;;;;;;10.05;84.39;103004.81;5078406;28;20024;-70
2021/11/19 00:25:59;;;;;;;0.20;0.20;;;;;;;10.13;84.27;103000.06;5077960;28;20109;-69
2021/11/19 00:28:25;;;;;;;0.20;0.20;;;;;;;10.16;84.51;102995.06;5078156;28;20024;-70
2021/11/19 00:30:50;;;;;;;0.20;0.20;;;;;;;10.21;84.25;102996.22;5078710;28;20025;-70
2021/11/19 00:33:16;;;;;;;0.27;0.27;;;;;;;10.20;84.14;103007.53;5078094;28;20093;-69
2021/11/19 00:35:43;;;;;;;0.20;0.20;;;;;;;10.21;84.22;103014.56;5077641;28;20402;-69
2021/11/19 00:38:10;;;;;;;0.20;0.20;;;;;;;10.21;84.47;103004.09;5078065;28;20066;-69
2021/11/19 00:41:03;;;;;;;0.10;0.10;;;;;;;10.23;84.07;103005.13;5044109;28;20036;-69
2021/11/19 00:43:28;;;;;;;0.30;0.30;;;;;;;10.24;84.34;102999.06;5074404;28;20403;-69
2021/11/19 00:45:54;;;;;;;0.07;0.07;;;;;;;10.26;84.31;102997.44;5077845;28;20067;-69
2021/11/19 00:48:22;;;;;;;0.20;0.20;;;;;;;10.27;84.40;102998.38;5077443;28;20086;-69
2021/11/19 00:50:54;;;;;;;0.30;0.30;;;;;;;10.32;84.60;103002.16;5075647;28;20146;-69
2021/11/19 00:53:20;;;;;;;0.20;0.20;;;;;;;10.39;84.31;102998.25;5078028;28;20609;-69
2021/11/19 00:55:45;;;;;;;0.17;0.17;;;;;;;10.49;84.09;103010.22;5075544;28;20422;-69
2021/11/19 00:58:11;;;;;;;0.20;0.20;;;;;;;10.54;84.00;102998.34;5077851;28;20325;-70
2021/11/19 01:00:44;;;;;;;0.20;0.20;;;;;;;10.54;83.75;102993.09;5079377;28;20065;-69
2021/11/19 01:03:10;;;;;;;0.30;0.30;;;;;;;10.51;83.85;102991.19;5077981;28;20032;-68
2021/11/19 01:05:36;;;;;;;0.10;0.10;;;;;;;10.52;84.03;102990.38;5061495;28;20038;-70
2021/11/19 01:08:01;;;;;;;0.20;0.20;;;;;;;10.56;84.14;102994.09;5061274;28;20020;-69
2021/11/19 01:10:30;;;;;;;0.30;0.30;;;;;;;10.57;83.97;102991.56;5061597;28;20383;-69
2021/11/19 01:12:56;;;;;;;0.20;0.20;;;;;;;10.55;83.86;102998.44;5060881;28;20028;-69
2021/11/19 01:15:33;;;;;;;0.13;0.13;;;;;;;10.63;83.77;102996.28;5077670;28;20021;-69
2021/11/19 01:18:03;;;;;;;0.30;0.30;;;;;;;10.64;83.69;102992.84;5076326;28;20145;-68
2021/11/19 01:20:34;;;;;;;0.20;0.20;;;;;;;10.63;83.93;102985.81;5077127;28;20052;-69
2021/11/19 01:23:02;;;;;;;0.30;0.30;;;;;;;10.62;83.94;102986.63;5074990;28;20021;-69
2021/11/19 01:25:30;;;;;;;0.37;0.37;;;;;;;10.62;84.07;102985.69;5077445;28;20031;-69
2021/11/19 01:27:55;;;;;;;0.60;0.60;;;;;;;10.64;84.11;102984.09;5059303;28;20031;-68
2021/11/19 01:30:26;;;;;;;0.20;0.20;;;;;;;10.69;84.00;102980.97;5077161;28;20294;-69
2021/11/19 01:32:51;;;;;;;0.30;0.30;;;;;;;10.70;84.11;102988.00;5077618;28;20023;-70
2021/11/19 01:35:17;;;;;;;0.20;0.20;;;;;;;10.72;83.91;102990.72;5076685;28;20036;-68
2021/11/19 01:37:43;;;;;;;0.27;0.27;;;;;;;10.76;84.21;102989.19;5076853;28;20403;-68
2021/11/19 01:40:13;;;;;;;0.10;0.10;;;;;;;10.78;84.10;102984.94;5076783;28;20039;-70
2021/11/19 01:42:44;;;;;;;0.30;0.30;;;;;;;10.79;84.01;102976.28;5074513;28;20278;-68
2021/11/19 01:45:16;;;;;;;0.30;0.30;;;;;;;10.81;84.04;102985.13;5076861;28;20039;-68
2021/11/19 01:47:46;;;;;;;0.40;0.40;;;;;;;10.81;84.00;102977.28;5035703;28;20048;-69
2021/11/19 01:50:26;;;;;;;0.20;0.20;;;;;;;10.85;84.20;102981.91;5058251;28;20047;-69
2021/11/19 01:52:58;;;;;;;0.30;0.30;;;;;;;10.87;83.94;102985.50;5076243;28;20119;-68
2021/11/19 01:55:27;;;;;;;0.33;0.33;;;;;;;10.87;84.09;102985.50;5057484;28;20036;-68
2021/11/19 01:57:59;;;;;;;0.20;0.20;;;;;;;10.94;83.85;102985.09;5059408;28;20036;-68
2021/11/19 02:00:48;;;;;;;0.30;0.30;;;;;;;10.91;83.77;102979.66;5059798;28;20103;-69
2021/11/19 02:03:15;;;;;;;0.30;0.30;;;;;;;10.91;84.12;102978.75;5077975;28;20035;-69
2021/11/19 02:06:02;;;;;;;0.20;0.20;;;;;;;10.92;84.14;102976.22;5077418;28;20025;-69
2021/11/19 02:08:29;;;;;;;;;;;;;;;10.93;84.15;102984.97;5077875;28;20028;-69
2021/11/19 02:11:13;;;;;;;0.20;0.20;;;;;;;10.93;83.54;102985.91;5077632;28;19916;-69
2021/11/19 02:14:23;;;;;;;0.30;0.30;;;;;;;10.94;83.96;102978.91;5077131;28;20040;-69
2021/11/19 02:16:56;;;;;;;0.20;0.20;;;;;;;10.93;84.12;102983.28;4977615;28;20026;-68
2021/11/19 02:19:29;;;;;;;0.30;0.30;;;;;;;10.93;84.09;102978.03;4976902;28;20122;-70
2021/11/19 02:21:58;;;;;;;0.30;0.30;;;;;;;10.95;83.78;102980.72;5038411;28;20032;-68
2021/11/19 02:24:33;;;;;;;0.23;0.23;;;;;;;10.97;84.01;102976.50;5059781;28;20020;-69
2021/11/19 02:27:09;;;;;;;0.33;0.33;;;;;;;10.95;84.43;102965.91;5077560;28;20032;-68
2021/11/19 02:29:41;;;;;;;0.30;0.30;;;;;;;10.97;84.08;102976.50;5060005;28;20024;-68
2021/11/19 02:32:12;;;;;;;0.27;0.27;;;;;;;10.97;83.94;102969.53;5076661;28;20043;-68
2021/11/19 02:34:37;;;;;;;0.40;0.40;;;;;;;10.97;84.08;102969.53;5059712;28;20391;-69
2021/11/19 02:37:07;;;;;;;0.20;0.20;;;;;;;11.03;84.04;102968.09;5076925;28;20066;-69
2021/11/19 02:39:36;;;;;;;0.30;0.30;;;;;;;11.03;84.09;102961.16;5058729;28;20024;-69
2021/11/19 02:42:09;;;;;;;0.33;0.33;;;;;;;11.01;84.03;102960.13;5059669;28;20044;-69
2021/11/19 02:44:35;;;;;;;0.20;0.20;;;;;;;10.99;84.22;102946.03;5043329;28;20069;-68
2021/11/19 02:47:08;;;;;;;0.20;0.20;;;;;;;11.03;84.38;102950.66;5076933;28;20336;-69
2021/11/19 02:49:34;;;;;;;0.20;0.20;;;;;;;11.03;84.28;102955.00;5059027;28;20264;-69
2021/11/19 02:52:00;;;;;;;0.30;0.30;;;;;;;11.02;84.56;102958.44;5076742;28;20020;-68
2021/11/19 02:54:28;;;;;;;0.30;0.30;;;;;;;11.06;84.35;102952.53;5076952;28;20150;-69
2021/11/19 02:56:54;;;;;;;0.20;0.20;;;;;;;11.05;84.29;102955.97;5077033;28;20050;-69
2021/11/19 02:59:21;;;;;;;0.30;0.30;;;;;;;11.07;84.25;102959.59;5058900;28;20031;-68
2021/11/19 03:01:52;;;;;;;0.20;0.20;;;;;;;11.09;84.10;102961.50;5076864;28;20050;-69
2021/11/19 03:04:25;;;;;;;0.20;0.20;;;;;;;11.10;84.19;102958.06;5076619;28;20020;-70
2021/11/19 03:06:56;;;;;;;0.30;0.30;;;;;;;11.09;83.95;102948.41;5077128;28;20028;-68
2021/11/19 03:09:25;;;;;;;0.30;0.30;;;;;;;11.07;83.96;102954.34;5059032;28;20059;-70
2021/11/19 03:11:50;;;;;;;0.30;0.30;;;;;;;11.09;83.95;102955.38;5077156;28;20020;-68
2021/11/19 03:14:17;;;;;;;0.40;0.40;;;;;;;11.07;83.98;102960.50;5076564;28;20405;-68
2021/11/19 03:16:43;;;;;;;0.40;0.40;;;;;;;11.09;84.12;102953.63;5077341;28;20051;-68
2021/11/19 03:19:09;;;;;;;0.20;0.20;;;;;;;11.09;84.03;102953.63;5076170;28;20088;-68
2021/11/19 03:21:35;;;;;;;0.20;0.20;;;;;;;11.15;83.62;102953.13;5059666;28;20107;-68
2021/11/19 03:24:02;;;;;;;0.20;0.20;;;;;;;11.14;83.84;102951.28;5076027;28;20028;-68
2021/11/19 03:26:28;;;;;;;0.30;0.30;;;;;;;11.11;83.66;102954.66;5076742;28;20032;-67
2021/11/19 03:28:54;;;;;;;0.30;0.30;;;;;;;11.10;83.82;102950.19;5076295;28;20016;-67
2021/11/19 03:31:19;;;;;;;0.40;0.40;;;;;;;11.08;83.96;102959.69;5059314;28;20032;-67
2021/11/19 03:33:48;;;;;;;0.30;0.30;;;;;;;11.14;83.40;102953.91;5076283;28;20028;-67
2021/11/19 03:36:15;;;;;;;0.40;0.40;;;;;;;11.13;83.62;102957.34;5042408;28;20028;-67
2021/11/19 03:38:43;;;;;;;0.30;0.30;;;;;;;11.09;83.57;102951.00;5058474;28;20123;-67
2021/11/19 03:41:09;;;;;;;0.30;0.30;;;;;;;11.09;83.65;102956.25;5058464;28;20024;-67
2021/11/19 03:43:39;;;;;;;0.40;0.40;;;;;;;11.09;83.48;102953.63;5076267;28;20028;-70
2021/11/19 03:46:08;;;;;;;0.23;0.23;;;;;;;11.11;83.71;102952.03;5076593;28;20044;-67
2021/11/19 03:48:34;;;;;;;0.40;0.40;;;;;;;11.11;83.43;102959.91;5058717;28;20024;-67
2021/11/19 03:51:11;;;;;;;0.40;0.40;;;;;;;11.09;83.57;102953.63;5078510;28;20081;-68
2021/11/19 03:53:36;;;;;;;0.30;0.30;;;;;;;11.10;83.37;102960.69;5080524;28;20291;-70
2021/11/19 03:56:03;;;;;;;0.40;0.40;;;;;;;11.11;83.38;102967.78;5062495;28;20017;-66
2021/11/19 03:58:31;;;;;;;0.20;0.20;;;;;;;11.11;83.44;102969.47;5062208;28;20318;-67
2021/11/19 04:01:10;;;;;;;0.30;0.30;;;;;;;11.12;83.41;102964.31;5079814;28;20384;-67
2021/11/19 04:03:35;;;;;;;0.40;0.40;;;;;;;11.12;83.70;102960.78;5062487;28;20107;-67
2021/11/19 04:06:02;;;;;;;0.30;0.30;;;;;;;11.10;83.56;102972.91;5080087;28;20102;-68
2021/11/19 04:08:27;;;;;;;0.20;0.20;;;;;;;11.11;83.67;102974.72;5079636;28;20120;-67
2021/11/19 04:10:53;;;;;;;0.37;0.37;;;;;;;11.13;83.72;102966.13;5062450;28;20040;-68
2021/11/19 04:13:19;;;;;;;0.20;0.20;;;;;;;11.20;83.36;102962.16;5079840;28;20028;-68
2021/11/19 04:15:49;;;;;;;0.40;0.40;;;;;;;11.19;83.31;102959.44;5079902;28;20421;-66
2021/11/19 04:18:14;;;;;;;0.23;0.23;;;;;;;11.16;83.40;102964.50;5045776;28;20027;-68
2021/11/19 04:20:42;;;;;;;0.30;0.30;;;;;;;11.15;83.42;102962.69;5062145;28;20017;-68
2021/11/19 04:23:08;;;;;;;0.30;0.30;;;;;;;11.18;83.55;102968.09;5079429;28;20025;-68
2021/11/19 04:25:33;;;;;;;0.40;0.40;;;;;;;11.18;83.29;102970.72;5079260;28;20044;-69
2021/11/19 04:27:59;;;;;;;0.30;0.30;;;;;;;11.20;83.13;102974.38;5079541;28;20078;-69
2021/11/19 04:30:31;;;;;;;0.30;0.30;;;;;;;11.20;83.25;102979.63;5079457;28;20028;-68
2021/11/19 04:32:56;;;;;;;0.30;0.30;;;;;;;11.19;83.34;102977.78;5079525;28;20098;-68
2021/11/19 04:35:22;;;;;;;0.30;0.30;;;;;;;11.19;83.28;102980.41;5079211;28;20390;-68
2021/11/19 04:37:49;;;;;;;0.30;0.30;;;;;;;11.15;83.47;102974.09;5079190;28;20039;-68
2021/11/19 04:40:16;;;;;;;0.47;0.47;;;;;;;11.12;83.61;102972.19;5079285;28;20030;-67
2021/11/19 04:42:42;;;;;;;0.30;0.30;;;;;;;11.13;83.53;102973.09;5078256;28;20033;-68
2021/11/19 04:45:10;;;;;;;0.30;0.30;;;;;;;11.18;83.07;102975.97;5078502;28;20082;-69
2021/11/19 04:47:35;;;;;;;0.23;0.23;;;;;;;11.15;83.49;102968.84;5079271;28;20359;-68
2021/11/19 04:50:01;;;;;;;0.83;0.60;;;;;;;11.12;83.60;102966.03;5078447;28;20281;-68
2021/11/19 04:52:27;;;;;;;0.30;0.30;;;;;;;11.10;83.64;102971.16;5078982;28;20036;-68
2021/11/19 04:54:52;;;;;;;0.30;0.30;;;;;;;11.09;83.43;102974.59;5078668;28;20048;-70
2021/11/19 04:57:18;;;;;;;0.30;0.30;;;;;;;11.09;83.78;102973.72;5079685;28;20409;-69
2021/11/19 04:59:44;;;;;;;0.20;0.20;;;;;;;11.06;84.15;102971.81;5079368;28;20028;-69
2021/11/19 05:02:20;;;;;;;0.20;0.20;;;;;;;11.09;83.92;102972.00;5060748;28;20020;-67
2021/11/19 05:04:45;;;;;;;;;;;;;;;11.10;83.61;102973.78;5079077;28;20398;-67
2021/11/19 05:07:11;;;;;;;0.40;0.40;;;;;;;11.12;83.15;102974.81;5078314;28;19959;-67
2021/11/19 05:09:39;;;;;;;0.30;0.30;;;;;;;11.13;83.60;102975.69;5078432;28;20029;-68
2021/11/19 05:12:09;;;;;;;0.20;0.20;;;;;;;11.09;83.53;102969.38;5078754;28;20051;-68
2021/11/19 05:14:35;;;;;;;0.20;0.20;;;;;;;11.09;83.54;102966.75;5061561;28;20048;-69
2021/11/19 05:17:04;;;;;;;0.30;0.30;;;;;;;11.06;83.70;102963.03;5078592;28;20395;-69
2021/11/19 05:19:29;;;;;;;0.50;0.50;;;;;;;11.06;83.33;102958.72;5060867;28;20094;-68
2021/11/19 05:21:55;;;;;;;0.40;0.40;;;;;;;11.12;83.26;102966.94;5078839;28;20024;-68
2021/11/19 05:24:21;;;;;;;0.30;0.30;;;;;;;11.10;83.27;102965.03;5078092;28;20037;-69
2021/11/19 05:26:48;;;;;;;0.50;0.50;;;;;;;11.06;83.29;102968.28;5078708;28;20036;-68
2021/11/19 05:29:14;;;;;;;0.23;0.23;;;;;;;11.06;83.31;102960.41;5078162;28;20082;-68
2021/11/19 05:31:40;;;;;;;0.40;0.40;;;;;;;11.04;83.77;102959.41;5078768;28;20034;-68
2021/11/19 05:34:05;;;;;;;0.30;0.30;;;;;;;11.04;83.28;102965.59;5077640;28;20028;-68
2021/11/19 05:36:31;;;;;;;0.40;0.40;;;;;;;11.00;83.58;102971.44;5078647;28;20024;-68
2021/11/19 05:38:57;;;;;;;0.40;0.40;;;;;;;11.00;83.53;102968.81;5060158;28;20280;-68
2021/11/19 05:41:24;;;;;;;0.30;0.30;;;;;;;11.01;83.33;102973.25;5060666;28;20028;-68
2021/11/19 05:43:50;;;;;;;0.30;0.30;;;;;;;10.99;83.43;102973.19;5078301;28;20035;-68
2021/11/19 05:46:18;;;;;;;0.27;0.27;;;;;;;11.04;83.22;102977.78;5078150;28;20027;-68
2021/11/19 05:48:45;;;;;;;0.30;0.30;;;;;;;11.02;83.43;102971.53;5077623;28;20039;-68
2021/11/19 05:51:11;;;;;;;0.20;0.20;;;;;;;11.01;83.58;102970.63;5077913;28;20016;-68
2021/11/19 05:53:36;;;;;;;0.27;0.27;;;;;;;11.05;83.42;102974.34;5078118;28;20032;-67
2021/11/19 05:56:02;;;;;;;0.40;0.40;;;;;;;11.05;83.39;102974.34;5077461;28;20039;-67
2021/11/19 05:58:27;;;;;;;0.30;0.30;;;;;;;11.04;83.29;102978.69;5077579;28;20040;-67
2021/11/19 06:01:01;;;;;;;0.30;0.30;;;;;;;11.05;83.34;102982.19;5060183;28;20354;-67
2021/11/19 06:03:27;;;;;;;0.40;0.40;;;;;;;11.02;83.40;102976.78;5077567;28;20133;-68
2021/11/19 06:05:52;;;;;;;0.40;0.40;;;;;;;11.01;83.48;102981.09;5077778;28;20378;-68
2021/11/19 06:08:19;;;;;;;0.30;0.30;;;;;;;10.99;83.52;102982.75;5077945;28;20031;-68
2021/11/19 06:10:51;;;;;;;0.30;0.30;;;;;;;11.01;83.61;102977.59;5060424;28;20020;-68
2021/11/19 06:13:24;;;;;;;0.20;0.20;;;;;;;11.01;83.50;102985.47;5077120;28;20035;-68
2021/11/19 06:15:53;;;;;;;0.40;0.40;;;;;;;11.01;84.10;102982.84;5077123;28;20398;-68
2021/11/19 06:18:24;;;;;;;0.20;0.20;;;;;;;11.03;83.42;102982.13;5060503;28;20287;-68
2021/11/19 06:20:52;;;;;;;0.27;0.27;;;;;;;11.03;83.20;102983.84;5077303;28;20061;-67
2021/11/19 06:23:27;;;;;;;0.20;0.20;;;;;;;10.98;83.21;102979.19;5077595;28;20394;-68
2021/11/19 06:25:53;;;;;;;0.30;0.30;;;;;;;10.96;83.62;102977.31;5059953;28;20036;-68
2021/11/19 06:28:26;;;;;;;0.30;0.30;;;;;;;10.95;83.46;102980.72;5077126;28;20024;-67
2021/11/19 06:30:52;;;;;;;0.40;0.40;;;;;;;10.94;83.69;102981.53;5043319;28;20028;-69
2021/11/19 06:33:19;;;;;;;0.30;0.30;;;;;;;10.95;83.84;102980.72;5076735;28;20048;-67
2021/11/19 06:35:44;;;;;;;0.30;0.30;;;;;;;10.95;83.46;102984.28;5059826;28;20143;-68
2021/11/19 06:38:10;;;;;;;0.30;0.30;;;;;;;10.95;83.58;102989.50;5059502;28;20051;-68
2021/11/19 06:40:36;;;;;;;0.30;0.30;;;;;;;10.94;83.45;102998.19;5077007;28;20032;-68
2021/11/19 06:43:02;;;;;;;0.27;0.27;;;;;;;10.91;83.59;102997.09;5076734;28;20024;-67
2021/11/19 06:45:29;;;;;;;0.33;0.33;;;;;;;10.89;83.49;102994.38;5077229;28;20029;-68
2021/11/19 06:47:54;;;;;;;0.30;0.30;;;;;;;10.88;83.77;102996.91;5076918;28;20054;-68
2021/11/19 06:50:24;;;;;;;0.33;0.33;;;;;;;10.86;83.75;102996.81;5076249;28;20116;-68
2021/11/19 06:52:50;;;;;;;0.40;0.40;;;;;;;10.82;83.62;103003.59;5077305;28;20020;-68
2021/11/19 06:55:15;;;;;;;0.30;0.30;;;;;;;10.81;83.74;103001.78;5076384;28;20028;-68
2021/11/19 06:57:41;;;;;;;0.40;0.40;;;;;;;10.80;84.00;103005.22;5043139;28;20031;-69
2021/11/19 07:00:14;;;;;;;0.30;0.30;;;;;;;10.83;83.59;103002.75;5076442;28;20043;-68
2021/11/19 07:02:39;;;;;;;0.40;0.40;;;;;;;10.79;83.73;103008.66;5059689;28;20024;-68
2021/11/19 07:05:05;;;;;;;0.33;0.33;;;;;;;10.77;83.64;103006.72;5076546;28;20024;-68
2021/11/19 07:07:30;;;;;;;0.30;0.30;;;;;;;10.75;83.61;103011.88;5076606;28;20036;-68
2021/11/19 07:09:56;;;;;;;0.30;0.30;;;;;;;10.72;83.80;103023.06;5076110;28;20409;-68
2021/11/19 07:12:21;;;;;;;0.43;0.43;;;;;;;10.69;83.96;103030.75;5077071;28;20039;-68
2021/11/19 07:14:47;;;;;;;0.30;0.30;;;;;;;10.69;84.15;103029.81;5059378;28;20380;-68
2021/11/19 07:17:13;;;;;;;0.50;0.50;;;;;;;10.69;84.21;103035.97;5059349;28;20032;-68
2021/11/19 07:19:39;;;;;;;0.30;0.30;;;;;;;10.71;84.02;103025.59;5076503;28;20020;-67
2021/11/19 07:22:04;;;;;;;0.30;0.30;;;;;;;10.69;83.97;103030.75;5076504;28;20024;-68
2021/11/19 07:24:33;;;;;;;0.40;0.40;;;;;;;10.71;83.95;103025.59;5058634;28;20359;-70
2021/11/19 07:26:58;;;;;;;0.37;0.37;;;;;;;10.69;84.07;103035.97;5080369;28;20025;-70
2021/11/19 07:29:25;;;;;;;0.30;0.30;;;;;;;10.70;84.49;103029.00;5080529;28;20067;-69
2021/11/19 07:31:50;;;;;;;0.20;0.20;;;;;;;10.70;84.13;103042.09;5063405;28;20300;-69
2021/11/19 07:34:16;;;;;;;0.30;0.30;;;;;;;10.72;84.08;103046.66;5080120;28;20116;-69
2021/11/19 07:36:42;;;;;;;0.20;0.20;;;;;;;10.70;84.03;103050.88;5063119;28;20032;-67
2021/11/19 07:39:08;;;;;;;0.20;0.20;;;;;;;10.71;83.92;103051.81;5045465;28;20040;-68
2021/11/19 07:41:34;;;;;;;0.20;0.20;;;;;;;10.71;84.02;103039.59;5080681;28;20070;-68
2021/11/19 07:44:00;;;;;;;0.30;0.30;;;;;;;10.74;84.57;103045.81;5045300;28;20021;-68
2021/11/19 07:46:27;;;;;;;0.30;0.30;;;;;;;10.71;84.03;103047.47;5078678;28;20035;-68
2021/11/19 07:48:53;;;;;;;0.30;0.30;;;;;;;10.72;83.99;103048.38;5059966;28;20054;-69
2021/11/19 07:51:22;;;;;;;0.13;0.13;;;;;;;10.74;83.92;103059.84;5079679;28;20442;-68
2021/11/19 07:53:48;;;;;;;0.23;0.23;;;;;;;10.77;83.39;103062.66;5058809;28;20047;-69
2021/11/19 07:56:16;;;;;;;0.30;0.30;;;;;;;10.78;83.87;103061.84;5079014;28;20115;-70
2021/11/19 07:58:42;;;;;;;0.30;0.30;;;;;;;10.82;83.77;103068.19;5060759;28;20020;-69
2021/11/19 08:01:08;;;;;;;0.20;0.20;;;;;;;10.89;83.64;103067.75;5079073;28;20035;-69
2021/11/19 08:03:33;;;;;;;0.40;0.40;;;;;;;10.87;83.35;103066.78;5077759;28;20064;-69
2021/11/19 08:06:01;;;;;;;0.40;0.40;;;;;;;10.94;83.40;103062.81;5078654;28;20055;-69
2021/11/19 08:08:28;;;;;;;0.40;0.40;;;;;;;10.92;83.36;103060.09;5079004;28;20020;-69
2021/11/19 08:10:54;;;;;;;0.33;0.33;;;;;;;10.92;83.32;103069.69;5062321;28;20085;-69
2021/11/19 08:13:20;;;;;;;0.20;0.20;;;;;;;10.95;83.22;103072.47;5073155;28;20338;-69
2021/11/19 08:15:46;;;;;;;0.40;0.40;;;;;;;10.96;83.11;103075.19;5079869;28;20124;-69
2021/11/19 08:18:21;;;;;;;0.30;0.30;;;;;;;10.97;82.81;103068.25;5057109;28;20463;-68
2021/11/19 08:20:49;;;;;;;0.30;0.30;;;;;;;10.98;83.07;103070.94;5060048;28;20028;-69
2021/11/19 08:23:18;;;;;;;0.50;0.50;;;;;;;11.03;83.08;103072.97;5079271;28;20332;-68
2021/11/19 08:25:45;;;;;;;0.30;0.30;;;;;;;11.06;82.93;103067.91;5079707;28;20059;-69
2021/11/19 08:28:10;;;;;;;0.30;0.30;;;;;;;11.09;82.46;103068.13;5077445;28;20036;-67
2021/11/19 08:30:42;;;;;;;0.30;0.30;;;;;;;11.10;82.96;103069.91;5066122;28;20031;-68
2021/11/19 08:33:08;;;;;;;0.30;0.30;;;;;;;11.08;82.81;103067.19;5060759;28;20040;-68
2021/11/19 08:35:35;;;;;;;0.50;0.50;;;;;;;11.10;82.76;103062.94;5061605;28;20123;-68
2021/11/19 08:38:03;;;;;;;0.30;0.30;;;;;;;11.11;82.86;103067.41;5061721;28;20349;-68
2021/11/19 08:40:29;;;;;;;0.27;0.27;;;;;;;11.14;82.62;103071.91;5077210;28;20134;-69
2021/11/19 08:42:55;;;;;;;0.30;0.30;;;;;;;11.16;82.64;103062.44;5077367;28;20138;-68
2021/11/19 08:45:22;;;;;;;0.20;0.20;;;;;;;11.18;82.75;103068.69;5060973;28;20423;-69
2021/11/19 08:47:52;;;;;;;0.20;0.20;;;;;;;11.19;82.68;103066.94;5062106;28;20136;-68
2021/11/19 08:50:22;;;;;;;0.30;0.30;;;;;;;11.24;82.08;103073.38;5078903;28;20035;-69
2021/11/19 08:52:47;;;;;;;0.40;0.40;;;;;;;11.25;82.14;103070.88;5079533;28;20463;-69
2021/11/19 08:55:14;;;;;;;0.40;0.40;;;;;;;11.26;81.91;103074.38;5078264;28;20173;-69
2021/11/19 08:57:40;;;;;;;0.50;0.50;;;;;;;11.24;82.00;103087.41;5079237;28;20339;-69
2021/11/19 09:00:13;;;;;;;0.30;0.30;;;;;;;11.24;81.68;103082.16;5078844;28;20036;-69
2021/11/19 09:02:38;;;;;;;0.40;0.40;;;;;;;11.17;81.77;103079.97;5061955;28;20374;-68
2021/11/19 09:05:05;;;;;;;0.40;0.40;;;;;;;11.12;81.97;103090.19;5078562;28;20028;-68
2021/11/19 09:07:32;;;;;;;0.20;0.20;;;;;;;11.13;81.82;103086.75;5078740;28;20047;-67
2021/11/19 09:09:58;;;;;;;0.23;0.23;;;;;;;11.16;81.42;103083.41;5078736;28;20028;-69
2021/11/19 09:12:24;;;;;;;0.30;0.30;;;;;;;11.17;81.47;103084.31;5079177;28;20047;-67
2021/11/19 09:14:49;;;;;;;0.47;0.47;;;;;;;11.15;81.75;103091.19;5078631;28;20071;-68
2021/11/19 09:17:31;;;;;;;0.40;0.40;;;;;;;11.19;81.40;103086.22;5078833;28;20093;-68
2021/11/19 09:20:27;;;;;;;0.30;0.30;;;;;;;11.20;81.32;103089.75;5078162;28;20035;-67
2021/11/19 09:23:03;;;;;;;0.50;0.50;;;;;;;11.22;81.18;103085.50;5061358;28;20036;-68
2021/11/19 09:25:28;;;;;;;0.30;0.30;;;;;;;11.27;80.81;103090.22;5060730;28;20290;-68
2021/11/19 09:27:54;;;;;;;0.30;0.30;;;;;;;11.30;80.97;103088.59;5078514;28;20228;-68
2021/11/19 09:30:26;;;;;;;0.40;0.40;;;;;;;11.33;80.74;103086.16;5078474;28;20028;-68
2021/11/19 09:32:53;;;;;;;0.40;0.40;;;;;;;11.35;80.53;103084.53;5078385;28;20037;-68
2021/11/19 09:35:21;;;;;;;0.50;0.50;;;;;;;11.39;80.41;103086.53;5078032;28;20117;-67
2021/11/19 09:37:49;;;;;;;0.50;0.50;;;;;;;11.45;80.27;103088.63;5077846;28;20059;-67
2021/11/19 09:40:15;;;;;;;0.37;0.37;;;;;;;11.52;79.90;103089.09;5078164;28;20344;-68
2021/11/19 09:42:43;;;;;;;0.30;0.30;;;;;;;11.51;79.93;103100.41;5078376;28;20032;-68
2021/11/19 09:45:50;;;;;;;0.40;0.40;;;;;;;11.63;79.55;103097.59;5078060;28;20032;-68
2021/11/19 09:48:47;;;;;;;0.50;0.50;;;;;;;11.69;79.18;103091.81;5030461;28;20075;-70
2021/11/19 09:51:33;;;;;;;0.50;0.50;;;;;;;11.74;79.04;103082.50;5078053;28;20052;-70
2021/11/19 09:54:14;;;;;;;;;;;;;;;11.73;78.57;103091.19;5060843;28;20108;-68
2021/11/19 09:56:51;;;;;;;0.30;0.30;;;;;;;11.68;78.69;103095.25;5077959;28;19916;-68
2021/11/19 09:59:43;;;;;;;0.50;0.50;;;;;;;11.67;79.06;103088.19;5077179;28;20395;-68
2021/11/19 10:03:02;;;;;;;0.40;0.40;;;;;;;11.71;78.94;103086.66;5060604;28;20043;-67
2021/11/19 10:05:37;;;;;;;0.33;0.33;;;;;;;11.81;78.47;103094.25;5025237;28;20041;-68
2021/11/19 10:08:24;;;;;;;0.40;0.40;;;;;;;11.89;78.18;103098.25;5077840;28;20028;-67
2021/11/19 10:11:19;;;;;;;0.57;0.57;;;;;;;12.00;77.89;103101.50;5077893;28;20038;-68
2021/11/19 10:14:10;;;;;;;0.50;0.50;;;;;;;12.13;77.60;103097.91;5077271;28;20040;-68
2021/11/19 10:16:48;;;;;;;0.50;0.50;;;;;;;12.19;76.98;103102.59;5077559;28;20115;-69
2021/11/19 10:19:25;;;;;;;0.50;0.50;;;;;;;12.20;77.41;103097.44;5059284;28;20024;-68
2021/11/19 10:21:59;;;;;;;1.03;1.03;;;;;;;12.29;77.42;103107.59;5060593;28;20432;-68
2021/11/19 10:24:35;;;;;;;0.50;0.50;;;;;;;12.42;76.56;103098.69;5077876;28;20020;-68
2021/11/19 10:27:00;;;;;;;0.45;0.45;;;;;;;12.52;76.05;103110.63;5077369;28;20040;-67
2021/11/19 10:29:33;;;;;;;0.43;0.43;;;;;;;12.53;75.60;103099.28;5077229;28;20024;-67
2021/11/19 10:32:01;;;;;;;0.60;0.60;;;;;;;12.44;75.41;103098.75;5059728;28;20371;-69
2021/11/19 10:35:11;;;;;;;0.53;0.53;;;;;;;12.31;76.10;103103.31;5042472;28;20044;-68
2021/11/19 10:38:01;;;;;;;0.40;0.40;;;;;;;12.26;76.12;103101.25;5039241;28;20064;-67
2021/11/19 10:40:54;;;;;;;0.40;0.40;;;;;;;12.20;76.56;103093.94;5077290;28;20347;-67
2021/11/19 10:43:37;;;;;;;0.30;0.30;;;;;;;12.23;77.02;103094.97;5077220;28;20270;-67
2021/11/19 10:46:18;;;;;;;0.40;0.40;;;;;;;12.24;76.73;103093.28;5077086;28;20062;-67
2021/11/19 10:49:21;;;;;;;0.60;0.60;;;;;;;12.29;76.31;103097.09;5076667;28;20024;-68
2021/11/19 10:51:46;;;;;;;0.40;0.40;;;;;;;12.40;75.63;103096.78;5076779;28;20387;-69
2021/11/19 10:54:41;;;;;;;0.40;0.40;;;;;;;12.44;76.09;103089.16;5076864;28;20024;-67
2021/11/19 10:57:20;;;;;;;0.33;0.33;;;;;;;12.54;75.11;103100.19;5076765;28;20035;-68
2021/11/19 11:00:05;;;;;;;0.40;0.40;;;;;;;12.73;74.79;103096.88;5058618;28;20024;-68
2021/11/19 11:02:37;;;;;;;0.37;0.37;;;;;;;12.81;74.92;103102.56;5077291;28;20016;-66
2021/11/19 11:05:17;;;;;;;0.50;0.50;;;;;;;12.82;74.11;103097.38;5076391;28;20032;-68
2021/11/19 11:08:01;;;;;;;0.57;0.57;;;;;;;12.88;72.85;103086.28;5076506;28;20043;-66
2021/11/19 11:10:34;;;;;;;0.40;0.40;;;;;;;12.92;74.00;103085.63;5077032;28;20020;-67
2021/11/19 11:12:59;;;;;;;0.40;0.40;;;;;;;13.02;73.57;103105.47;5059257;28;20104;-67
2021/11/19 11:15:32;;;;;;;0.50;0.50;;;;;;;12.97;72.63;103096.41;5076825;28;20330;-66
2021/11/19 11:18:09;;;;;;;0.50;0.50;;;;;;;13.02;72.65;103094.94;5058826;28;20035;-69
2021/11/19 11:20:44;;;;;;;0.50;0.50;;;;;;;13.14;72.16;103099.97;5076576;28;20031;-68
2021/11/19 11:23:36;;;;;;;0.50;0.50;;;;;;;13.09;70.85;103099.72;5059423;28;20024;-76
2021/11/19 11:26:16;;;;;;;0.50;0.50;;;;;;;13.08;71.16;103086.47;5076003;28;20395;-69
2021/11/19 11:28:50;;;;;;;0.50;0.50;;;;;;;13.05;72.45;103089.84;5076581;28;20035;-67
2021/11/19 11:31:18;;;;;;;0.40;0.40;;;;;;;13.02;72.44;103103.72;5076689;28;20020;-68
2021/11/19 11:33:53;;;;;;;0.50;0.50;;;;;;;13.11;71.87;103094.50;5076194;28;20029;-66
2021/11/19 11:36:43;;;;;;;0.37;0.37;;;;;;;13.10;72.13;103104.16;5076677;28;20413;-69
2021/11/19 11:39:12;;;;;;;0.40;0.40;;;;;;;13.19;71.50;103086.22;5058255;28;20075;-72
2021/11/19 11:41:46;;;;;;;0.40;0.40;;;;;;;13.24;70.70;103097.00;5076687;28;20028;-67